Time;durP1;ratioP1;P1;durP2;ratioP2;P2;SDS_P1;SDS_P2;PMS_P1;PMS_P2;Temp;Humidity;BMP_temperature;BMP_pressure;BME280_temperature;BME280_humidity;BME280_pressure;Samples;Min_cycle;Max_cycle;Signal;HPM_P1;HPM_P2
2022/09/02 00:02:04;;;;;;;;;;;;;;;20.17;100.00;95005.97;5113143;28;1869;-50
2022/09/02 00:04:30;;;;;;;;;;;;;;;20.12;100.00;94999.53;5113340;28;1998;-50
2022/09/02 00:06:56;;;;;;;;;;;;;;;20.05;100.00;94994.16;5113435;28;962;-50
2022/09/02 00:09:23;;;;;;;;;;;;;;;20.09;100.00;94996.22;5113341;28;1016;-50
2022/09/02 00:11:50;;;;;;;;;;;;;;;20.18;100.00;94990.50;5113303;28;945;-50
2022/09/02 00:14:18;;;;;;;;;;;;;;;20.09;100.00;94992.69;5113285;28;1016;-49
2022/09/02 00:16:49;;;;;;;;;;;;;;;20.03;100.00;94988.13;5113092;28;1016;-50
2022/09/02 00:19:25;;;;;;;;;;;;;;;20.05;100.00;94988.75;5113504;28;1004;-49
2022/09/02 00:21:52;;;;;;;;;;;;;;;19.98;100.00;94985.28;5113285;28;1043;-50
2022/09/02 00:24:18;;;;;;;;;;;;;;;19.96;100.00;94988.22;5113237;28;1910;-49
2022/09/02 00:26:45;;;;;;;;;;;;;;;19.89;100.00;94984.72;5112978;28;1174;-49
2022/09/02 00:29:13;;;;;;;;;;;;;;;19.89;100.00;94982.00;5113162;28;961;-49
2022/09/02 00:31:41;;;;;;;;;;;;;;;19.86;100.00;94979.72;5116011;28;984;-49
2022/09/02 00:34:07;;;;;;;;;;;;;;;19.87;100.00;94975.97;5116815;28;1028;-49
2022/09/02 00:36:33;;;;;;;;;;;;;;;19.96;100.00;94977.34;5116814;28;960;-49
2022/09/02 00:39:00;;;;;;;;;;;;;;;19.93;100.00;94985.13;5116809;28;1078;-49
2022/09/02 00:41:27;;;;;;;;;;;;;;;19.79;100.00;94979.00;5116548;28;994;-49
2022/09/02 00:43:55;;;;;;;;;;;;;;;19.76;100.00;94979.44;5114096;28;1914;-49
2022/09/02 00:46:23;;;;;;;;;;;;;;;19.78;100.00;94980.84;5096000;28;1005;-49
2022/09/02 00:48:55;;;;;;;;;;;;;;;19.82;100.00;94982.06;5096407;28;1003;-49
2022/09/02 00:51:22;;;;;;;;;;;;;;;19.76;100.00;94972.13;5096088;28;1041;-49
2022/09/02 00:53:48;;;;;;;;;;;;;;;19.76;100.00;94980.25;5096168;28;969;-49
2022/09/02 00:56:20;;;;;;;;;;;;;;;19.69;100.00;94985.72;5096017;28;1156;-49
2022/09/02 00:58:46;;;;;;;;;;;;;;;19.61;100.00;94974.31;5096268;28;977;-49
2022/09/02 01:01:13;;;;;;;;;;;;;;;19.56;100.00;94976.84;5096134;28;1029;-49
2022/09/02 01:03:40;;;;;;;;;;;;;;;19.60;100.00;94976.19;5095665;28;1913;-49
2022/09/02 01:06:07;;;;;;;;;;;;;;;19.59;100.00;94973.69;5095949;28;984;-49
2022/09/02 01:08:35;;;;;;;;;;;;;;;19.58;100.00;94988.28;5095768;28;1052;-49
2022/09/02 01:11:04;;;;;;;;;;;;;;;19.58;100.00;94981.00;5095806;28;989;-49
2022/09/02 01:13:34;;;;;;;;;;;;;;;19.59;100.00;94979.94;5095561;28;1526;-49
2022/09/02 01:16:09;;;;;;;;;;;;;;;19.65;100.00;94964.66;5095847;28;970;-49
2022/09/02 01:18:35;;;;;;;;;;;;;;;19.67;100.00;94971.56;5095483;28;1084;-49
2022/09/02 01:21:02;;;;;;;;;;;;;;;19.69;100.00;94974.88;5095676;28;1056;-49
2022/09/02 01:23:28;;;;;;;;;;;;;;;19.72;100.00;94968.19;5095270;28;1993;-49
2022/09/02 01:25:55;;;;;;;;;;;;;;;19.75;100.00;94973.19;5095242;28;1318;-50
2022/09/02 01:28:22;;;;;;;;;;;;;;;19.73;100.00;94969.00;5095412;28;1020;-49
2022/09/02 01:30:49;;;;;;;;;;;;;;;19.55;100.00;94969.78;5095578;28;1056;-49
2022/09/02 01:33:16;;;;;;;;;;;;;;;19.60;100.00;94968.06;5095222;28;1032;-49
2022/09/02 01:35:42;;;;;;;;;;;;;;;19.61;100.00;94964.28;5095277;28;1056;-49
2022/09/02 01:38:08;;;;;;;;;;;;;;;19.66;100.00;94966.34;5095037;28;986;-49
2022/09/02 01:40:35;;;;;;;;;;;;;;;19.63;100.00;94974.91;5095154;28;973;-49
2022/09/02 01:43:05;;;;;;;;;;;;;;;19.61;100.00;94971.59;5095069;28;1980;-49
2022/09/02 01:45:31;;;;;;;;;;;;;;;19.62;100.00;94959.72;5111458;28;1154;-50
2022/09/02 01:47:57;;;;;;;;;;;;;;;19.66;100.00;94963.63;5115420;28;988;-49
2022/09/02 01:50:23;;;;;;;;;;;;;;;19.61;100.00;94958.03;5115409;28;992;-49
2022/09/02 01:52:49;;;;;;;;;;;;;;;19.55;100.00;94967.06;5115194;28;987;-50
2022/09/02 01:55:15;;;;;;;;;;;;;;;19.40;100.00;94954.66;5115228;28;1024;-50
2022/09/02 01:57:41;;;;;;;;;;;;;;;19.33;100.00;94953.03;5115376;28;1060;-50
2022/09/02 02:00:08;;;;;;;;;;;;;;;19.31;100.00;94953.25;5115125;28;1115;-49
2022/09/02 02:02:34;;;;;;;;;;;;;;;19.40;100.00;94949.22;5115205;28;1913;-49
2022/09/02 02:05:01;;;;;;;;;;;;;;;19.47;100.00;94949.19;5115010;28;993;-49
2022/09/02 02:07:27;;;;;;;;;;;;;;;19.53;100.00;94942.88;5115005;28;1095;-49
2022/09/02 02:09:53;;;;;;;;;;;;;;;19.60;100.00;94949.06;5114831;28;1091;-50
2022/09/02 02:12:19;;;;;;;;;;;;;;;19.60;100.00;94938.22;5114888;28;1092;-49
2022/09/02 02:14:45;;;;;;;;;;;;;;;19.62;100.00;94935.31;5114912;28;1004;-50
2022/09/02 02:17:11;;;;;;;;;;;;;;;19.66;100.00;94948.19;5114938;28;965;-50
2022/09/02 02:19:37;;;;;;;;;;;;;;;19.49;100.00;94939.78;5114633;28;993;-50
2022/09/02 02:22:03;;;;;;;;;;;;;;;19.43;100.00;94945.28;5114730;28;977;-49
2022/09/02 02:24:29;;;;;;;;;;;;;;;19.40;100.00;94930.25;5114465;28;1910;-49
2022/09/02 02:26:55;;;;;;;;;;;;;;;19.39;100.00;94935.88;5114562;28;1195;-49
2022/09/02 02:29:22;;;;;;;;;;;;;;;19.42;100.00;94933.56;5114608;28;1040;-49
2022/09/02 02:31:48;;;;;;;;;;;;;;;19.36;100.00;94937.16;5114579;28;1084;-49
2022/09/02 02:34:14;;;;;;;;;;;;;;;19.37;100.00;94930.72;5114401;28;1048;-49
2022/09/02 02:36:41;;;;;;;;;;;;;;;19.41;100.00;94934.63;5114547;28;989;-49
2022/09/02 02:39:08;;;;;;;;;;;;;;;19.42;100.00;94932.75;5114224;28;1055;-49
2022/09/02 02:41:34;;;;;;;;;;;;;;;19.40;100.00;94934.84;5114661;28;957;-49
2022/09/02 02:44:01;;;;;;;;;;;;;;;19.33;100.00;94939.50;5110747;28;1910;-49
2022/09/02 02:46:29;;;;;;;;;;;;;;;19.33;100.00;94932.22;5094044;28;978;-49
2022/09/02 02:48:58;;;;;;;;;;;;;;;19.29;100.00;94936.38;5093773;28;1952;-49
2022/09/02 02:51:24;;;;;;;;;;;;;;;19.27;100.00;94944.78;5094311;28;1037;-49
2022/09/02 02:53:50;;;;;;;;;;;;;;;19.32;100.00;94935.97;5093506;28;1000;-49
2022/09/02 02:56:16;;;;;;;;;;;;;;;19.34;100.00;94938.47;5093956;28;966;-49
2022/09/02 02:58:42;;;;;;;;;;;;;;;19.33;100.00;94931.34;5093791;28;1005;-49
2022/09/02 03:01:08;;;;;;;;;;;;;;;19.39;100.00;94944.03;5093726;28;1004;-49
2022/09/02 03:03:34;;;;;;;;;;;;;;;19.55;100.00;94942.66;5093710;28;1906;-49
2022/09/02 03:06:01;;;;;;;;;;;;;;;19.75;100.00;94942.50;5093531;28;962;-49
2022/09/02 03:08:27;;;;;;;;;;;;;;;19.64;100.00;94938.63;5094024;28;1044;-49
2022/09/02 03:10:55;;;;;;;;;;;;;;;19.56;100.00;94941.59;5093594;28;989;-50
2022/09/02 03:13:22;;;;;;;;;;;;;;;19.53;100.00;94939.34;5093608;28;1060;-50
2022/09/02 03:15:48;;;;;;;;;;;;;;;19.59;100.00;94941.16;5093512;28;952;-49
2022/09/02 03:18:14;;;;;;;;;;;;;;;19.66;100.00;94936.50;5093472;28;1012;-49
2022/09/02 03:20:40;;;;;;;;;;;;;;;19.72;100.00;94937.50;5093220;28;1037;-49
2022/09/02 03:23:06;;;;;;;;;;;;;;;19.85;100.00;94940.13;5093545;28;1991;-49
2022/09/02 03:25:33;;;;;;;;;;;;;;;19.81;100.00;94931.59;5093510;28;965;-49
2022/09/02 03:27:59;;;;;;;;;;;;;;;19.80;100.00;94940.78;5093331;28;1095;-49
2022/09/02 03:30:27;;;;;;;;;;;;;;;19.68;100.00;94942.53;5093389;28;2265;-48
2022/09/02 03:32:54;;;;;;;;;;;;;;;19.60;100.00;94940.13;5093386;28;1009;-49
2022/09/02 03:35:20;;;;;;;;;;;;;;;19.47;100.00;94936.47;5093014;28;1017;-49
2022/09/02 03:37:47;;;;;;;;;;;;;;;19.34;100.00;94941.16;5093588;28;1002;-49
2022/09/02 03:40:15;;;;;;;;;;;;;;;19.35;100.00;94945.53;5093017;28;1079;-48
2022/09/02 03:42:41;;;;;;;;;;;;;;;19.28;100.00;94940.16;5093187;28;1910;-49
2022/09/02 03:45:08;;;;;;;;;;;;;;;19.18;100.00;94940.66;5105683;28;1225;-49
2022/09/02 03:47:35;;;;;;;;;;;;;;;19.16;100.00;94934.63;5113702;28;1024;-49
2022/09/02 03:50:02;;;;;;;;;;;;;;;19.14;100.00;94939.41;5113331;28;1088;-49
2022/09/02 03:52:28;;;;;;;;;;;;;;;19.21;100.00;94942.09;5113828;28;980;-49
2022/09/02 03:54:55;;;;;;;;;;;;;;;19.28;100.00;94942.88;5113500;28;984;-49
2022/09/02 03:57:24;;;;;;;;;;;;;;;19.39;100.00;94946.75;5113307;28;1007;-49
2022/09/02 03:59:50;;;;;;;;;;;;;;;19.41;100.00;94947.38;5113387;28;978;-49
2022/09/02 04:02:17;;;;;;;;;;;;;;;19.50;100.00;94935.16;5113455;28;987;-49
2022/09/02 04:04:43;;;;;;;;;;;;;;;19.51;100.00;94942.28;5113186;28;1986;-49
2022/09/02 04:07:09;;;;;;;;;;;;;;;19.55;100.00;94946.19;5117243;28;960;-50
2022/09/02 04:09:35;;;;;;;;;;;;;;;19.52;100.00;94949.38;5117554;28;1031;-50
2022/09/02 04:12:02;;;;;;;;;;;;;;;19.25;100.00;94954.97;5117338;28;1039;-50
2022/09/02 04:14:28;;;;;;;;;;;;;;;19.05;100.00;94957.00;5117426;28;974;-49
2022/09/02 04:16:54;;;;;;;;;;;;;;;19.07;100.00;94957.63;5117054;28;1021;-49
2022/09/02 04:19:20;;;;;;;;;;;;;;;19.15;100.00;94968.19;5116944;28;1036;-50
2022/09/02 04:21:46;;;;;;;;;;;;;;;19.26;100.00;94969.38;5117175;28;1056;-50
2022/09/02 04:24:12;;;;;;;;;;;;;;;19.34;100.00;94974.53;5117132;28;1926;-49
2022/09/02 04:26:38;;;;;;;;;;;;;;;19.27;100.00;94977.28;5116825;28;1182;-49
2022/09/02 04:29:06;;;;;;;;;;;;;;;19.17;100.00;94982.34;5116899;28;932;-49
2022/09/02 04:31:32;;;;;;;;;;;;;;;19.07;100.00;94998.28;5116724;28;1271;-49
2022/09/02 04:33:59;;;;;;;;;;;;;;;19.01;100.00;94988.28;5116866;28;976;-49
2022/09/02 04:36:25;;;;;;;;;;;;;;;19.11;100.00;94989.47;5116833;28;1063;-48
2022/09/02 04:38:51;;;;;;;;;;;;;;;19.23;100.00;94988.78;5116986;28;1012;-48
2022/09/02 04:41:21;;;;;;;;;;;;;;;19.32;100.00;94992.88;5116655;28;1032;-49
2022/09/02 04:43:48;;;;;;;;;;;;;;;19.30;100.00;94997.69;5115092;28;1989;-49
2022/09/02 04:46:15;;;;;;;;;;;;;;;19.25;100.00;95000.22;5096098;28;1084;-49
2022/09/02 04:48:41;;;;;;;;;;;;;;;19.30;100.00;94998.53;5096202;28;1027;-49
2022/09/02 04:51:09;;;;;;;;;;;;;;;19.38;100.00;95008.25;5095939;28;1960;-48
2022/09/02 04:53:35;;;;;;;;;;;;;;;19.45;100.00;95000.09;5096284;28;1020;-49
2022/09/02 04:56:02;;;;;;;;;;;;;;;19.47;100.00;95003.41;5095887;28;1100;-49
2022/09/02 04:58:28;;;;;;;;;;;;;;;19.51;100.00;95013.59;5096120;28;970;-49
2022/09/02 05:00:54;;;;;;;;;;;;;;;19.61;100.00;95006.84;5095862;28;1030;-49
2022/09/02 05:03:20;;;;;;;;;;;;;;;19.52;100.00;95003.59;5095741;28;1915;-49
2022/09/02 05:05:47;;;;;;;;;;;;;;;19.45;100.00;95000.09;5095944;28;1014;-49
2022/09/02 05:08:13;;;;;;;;;;;;;;;19.45;100.00;94995.50;5095719;28;1112;-49
2022/09/02 05:10:39;;;;;;;;;;;;;;;19.40;100.00;95002.63;5095884;28;954;-49
2022/09/02 05:13:05;;;;;;;;;;;;;;;19.39;100.00;94998.25;5095654;28;995;-49
2022/09/02 05:15:32;;;;;;;;;;;;;;;19.45;100.00;94997.38;5095726;28;1970;-49
2022/09/02 05:17:58;;;;;;;;;;;;;;;19.49;100.00;95001.31;5095098;28;973;-50
2022/09/02 05:20:24;;;;;;;;;;;;;;;19.53;100.00;94999.00;5095647;28;1021;-50
2022/09/02 05:22:50;;;;;;;;;;;;;;;19.53;100.00;94994.41;5095526;28;2047;-50
2022/09/02 05:25:16;;;;;;;;;;;;;;;19.56;100.00;94996.69;5095591;28;1015;-50
2022/09/02 05:27:42;;;;;;;;;;;;;;;19.61;100.00;94993.28;5095159;28;1369;-49
2022/09/02 05:30:08;;;;;;;;;;;;;;;19.67;100.00;95005.94;5095411;28;1021;-50
2022/09/02 05:32:35;;;;;;;;;;;;;;;19.72;100.00;95003.44;5095158;28;969;-50
2022/09/02 05:35:01;;;;;;;;;;;;;;;19.69;100.00;95004.69;5095562;28;946;-49
2022/09/02 05:37:27;;;;;;;;;;;;;;;19.68;100.00;94996.78;5095310;28;937;-50
2022/09/02 05:39:53;;;;;;;;;;;;;;;19.72;100.00;94998.03;5095406;28;976;-50
2022/09/02 05:42:19;;;;;;;;;;;;;;;19.72;100.00;95000.75;5095036;28;1036;-49
2022/09/02 05:44:45;;;;;;;;;;;;;;;19.72;100.00;95003.44;5104741;28;1910;-50
2022/09/02 05:47:12;;;;;;;;;;;;;;;19.74;100.00;95005.94;5115156;28;1051;-50
2022/09/02 05:49:37;;;;;;;;;;;;;;;19.63;100.00;95008.28;5115677;28;949;-49
2022/09/02 05:52:04;;;;;;;;;;;;;;;19.57;100.00;95009.16;5115529;28;1000;-50
2022/09/02 05:54:32;;;;;;;;;;;;;;;19.57;100.00;95006.44;5115489;28;1052;-50
2022/09/02 05:56:59;;;;;;;;;;;;;;;19.72;100.00;95010.72;5115226;28;1083;-50
2022/09/02 05:59:26;;;;;;;;;;;;;;;19.69;100.00;95010.13;5115229;28;957;-50
2022/09/02 06:01:53;;;;;;;;;;;;;;;19.58;100.00;95010.84;5115014;28;973;-50
2022/09/02 06:04:19;;;;;;;;;;;;;;;19.55;100.00;95011.28;5115203;28;1992;-50
2022/09/02 06:06:45;;;;;;;;;;;;;;;19.56;100.00;95010.22;5115227;28;1033;-50
2022/09/02 06:09:12;;;;;;;;;;;;;;;19.56;100.00;95009.38;5114841;28;914;-49
2022/09/02 06:11:44;;;;;;;;;;;;;;;19.64;100.00;95017.25;5115132;28;996;-50
2022/09/02 06:14:12;;;;;;;;;;;;;;;19.81;100.00;95023.00;5114817;28;1037;-50
2022/09/02 06:16:38;;;;;;;;;;;;;;;19.86;100.00;95017.72;5114946;28;1083;-50
2022/09/02 06:19:04;;;;;;;;;;;;;;;19.87;100.00;95019.41;5114596;28;1238;-50
2022/09/02 06:21:31;;;;;;;;;;;;;;;19.88;100.00;95023.75;5114975;28;966;-50
2022/09/02 06:23:57;;;;;;;;;;;;;;;19.85;100.00;95032.34;5114530;28;1972;-49
2022/09/02 06:26:23;;;;;;;;;;;;;;;19.82;100.00;95016.50;5114566;28;1227;-50
2022/09/02 06:28:49;;;;;;;;;;;;;;;19.80;100.00;95019.44;5113818;28;1810;-50
2022/09/02 06:31:16;;;;;;;;;;;;;;;19.89;100.00;95020.81;5114854;28;1027;-50
2022/09/02 06:33:43;;;;;;;;;;;;;;;20.00;100.00;95024.69;5114766;28;1031;-50
2022/09/02 06:36:11;;;;;;;;;;;;;;;20.02;100.00;95030.72;5114617;28;988;-50
2022/09/02 06:38:38;;;;;;;;;;;;;;;19.93;100.00;95032.06;5114499;28;1072;-49
2022/09/02 06:41:05;;;;;;;;;;;;;;;19.95;100.00;95032.66;5114526;28;1055;-49
2022/09/02 06:43:31;;;;;;;;;;;;;;;19.95;100.00;95021.81;5114118;28;1981;-49
2022/09/02 06:45:57;;;;;;;;;;;;;;;19.94;100.00;95031.03;5094737;28;1166;-49
2022/09/02 06:48:23;;;;;;;;;;;;;;;19.92;100.00;95037.72;5093911;28;988;-50
2022/09/02 06:50:50;;;;;;;;;;;;;;;19.97;100.00;95040.59;5093965;28;1064;-50
2022/09/02 06:53:18;;;;;;;;;;;;;;;19.88;100.00;95037.31;5093772;28;1015;-49
2022/09/02 06:55:44;;;;;;;;;;;;;;;19.84;100.00;95036.09;5093857;28;1072;-49
2022/09/02 06:58:10;;;;;;;;;;;;;;;19.78;100.00;95043.25;5093538;28;1024;-50
2022/09/02 07:00:36;;;;;;;;;;;;;;;19.80;100.00;95038.44;5094030;28;954;-49
2022/09/02 07:05:57;;;;;;;;;;;;;;;19.94;100.00;95041.03;5093892;28;1049;-50
2022/09/02 07:08:22;;;;;;;;;;;;;;;19.89;100.00;95044.41;5093502;28;1032;-49
2022/09/02 07:10:48;;;;;;;;;;;;;;;19.87;100.00;95047.34;5093598;28;1866;-49
2022/09/02 07:13:14;;;;;;;;;;;;;;;19.97;100.00;95046.84;5075386;28;1258;-49
2022/09/02 07:15:40;;;;;;;;;;;;;;;20.03;100.00;95053.25;5093580;28;1025;-50
2022/09/02 07:18:06;;;;;;;;;;;;;;;20.06;100.00;95053.66;5093298;28;1033;-49
2022/09/02 07:20:32;;;;;;;;;;;;;;;20.21;100.00;95052.50;5093604;28;1042;-49
2022/09/02 07:22:58;;;;;;;;;;;;;;;20.27;100.00;95059.72;5093334;28;1909;-49
2022/09/02 07:25:24;;;;;;;;;;;;;;;20.34;100.00;95057.78;5093356;28;981;-49
2022/09/02 07:27:51;;;;;;;;;;;;;;;20.29;100.00;95058.44;5093304;28;1524;-50
2022/09/02 07:30:17;;;;;;;;;;;;;;;20.28;100.00;95053.25;5093499;28;1012;-49
2022/09/02 07:32:43;;;;;;;;;;;;;;;20.39;100.00;95059.81;5093571;28;1038;-49
2022/09/02 07:35:09;;;;;;;;;;;;;;;20.50;100.00;95058.25;5075332;28;977;-50
2022/09/02 07:37:36;;;;;;;;;;;;;;;20.55;100.00;95052.97;5093426;28;1041;-50
2022/09/02 07:40:03;;;;;;;;;;;;;;;20.47;100.00;95057.66;5095040;28;1042;-49
2022/09/02 07:42:29;;;;;;;;;;;;;;;20.41;100.00;95063.97;5097551;28;1096;-49
2022/09/02 07:44:56;;;;;;;;;;;;;;;20.29;100.00;95066.59;5108506;28;1910;-49
2022/09/02 07:47:22;;;;;;;;;;;;;;;20.29;100.00;95063.88;5117862;28;1041;-49
2022/09/02 07:49:48;;;;;;;;;;;;;;;20.36;100.00;95058.38;5117767;28;983;-49
2022/09/02 07:52:14;;;;;;;;;;;;;;;20.38;100.00;95060.88;5117737;28;1013;-50
2022/09/02 07:54:40;;;;;;;;;;;;;;;20.45;100.00;95067.06;5117468;28;1044;-50
2022/09/02 07:57:06;;;;;;;;;;;;;;;20.50;100.00;95064.50;5117572;28;913;-50
2022/09/02 07:59:32;;;;;;;;;;;;;;;20.50;99.86;95067.22;5117457;28;1020;-49
2022/09/02 08:01:58;;;;;;;;;;;;;;;20.57;100.00;95067.97;5117688;28;999;-49
2022/09/02 08:04:24;;;;;;;;;;;;;;;20.53;100.00;95068.66;5117322;28;1909;-49
2022/09/02 08:06:51;;;;;;;;;;;;;;;20.62;100.00;95080.91;5117582;28;992;-49
2022/09/02 08:09:17;;;;;;;;;;;;;;;20.64;99.38;95078.78;5117104;28;1040;-49
2022/09/02 08:11:45;;;;;;;;;;;;;;;20.71;100.00;95078.75;5117393;28;1028;-49
2022/09/02 08:14:13;;;;;;;;;;;;;;;20.71;100.00;95079.56;5117222;28;1053;-49
2022/09/02 08:16:39;;;;;;;;;;;;;;;20.82;99.45;95073.38;5117340;28;1024;-50
2022/09/02 08:19:05;;;;;;;;;;;;;;;21.01;98.65;95081.53;5117089;28;1051;-49
2022/09/02 08:21:31;;;;;;;;;;;;;;;21.19;96.42;95067.91;5117685;28;961;-49
2022/09/02 08:23:59;;;;;;;;;;;;;;;21.19;96.04;95067.06;5098758;28;1905;-49
2022/09/02 08:26:27;;;;;;;;;;;;;;;21.37;95.36;95077.09;5116842;28;1076;-50
2022/09/02 08:28:53;;;;;;;;;;;;;;;21.47;94.12;95073.84;5117141;28;1044;-49
2022/09/02 08:31:19;;;;;;;;;;;;;;;21.69;94.25;95064.09;5116883;28;1106;-49
2022/09/02 08:33:45;;;;;;;;;;;;;;;21.80;93.67;95071.47;5116976;28;1071;-49
2022/09/02 08:36:13;;;;;;;;;;;;;;;21.88;91.95;95070.28;5116789;28;1008;-49
2022/09/02 08:38:40;;;;;;;;;;;;;;;21.73;92.34;95067.19;5116819;28;1017;-49
2022/09/02 08:41:12;;;;;;;;;;;;;;;21.74;94.20;95072.41;5116827;28;1040;-49
2022/09/02 08:43:40;;;;;;;;;;;;;;;21.85;91.31;95070.75;5116376;28;1991;-49
2022/09/02 08:46:10;;;;;;;;;;;;;;;21.96;90.06;95069.94;5096188;28;954;-49
2022/09/02 08:48:44;;;;;;;;;;;;;;;22.08;90.88;95064.50;5096455;28;985;-49
2022/09/02 08:51:15;;;;;;;;;;;;;;;22.30;90.70;95069.41;5095246;28;997;-49
2022/09/02 08:53:50;;;;;;;;;;;;;;;22.70;87.03;95069.50;5096413;28;974;-49
2022/09/02 08:56:18;;;;;;;;;;;;;;;22.84;86.07;95070.09;5096084;28;1040;-49
2022/09/02 08:58:49;;;;;;;;;;;;;;;22.89;86.94;95072.91;5096072;28;1028;-49
2022/09/02 09:01:23;;;;;;;;;;;;;;;22.74;87.31;95073.41;5095838;28;1023;-49
2022/09/02 09:04:07;;;;;;;;;;;;;;;23.08;84.94;95070.88;5095859;28;1906;-49
2022/09/02 09:06:37;;;;;;;;;;;;;;;23.21;82.24;95052.59;5095935;28;1024;-49
2022/09/02 09:09:21;;;;;;;;;;;;;;;23.37;82.39;95070.91;5095773;28;997;-49
2022/09/02 09:12:12;;;;;;;;;;;;;;;23.71;80.39;95063.66;5095842;28;1977;-49
2022/09/02 09:14:38;;;;;;;;;;;;;;;24.04;81.21;95069.41;5095870;28;1063;-49
2022/09/02 09:17:23;;;;;;;;;;;;;;;24.01;78.83;95065.25;5095664;28;1029;-49
2022/09/02 09:19:52;;;;;;;;;;;;;;;23.48;83.79;95059.09;5095598;28;1036;-49
2022/09/02 09:22:19;;;;;;;;;;;;;;;23.20;83.21;95059.94;5095550;28;1033;-49
2022/09/02 09:24:47;;;;;;;;;;;;;;;22.92;84.13;95053.34;5095883;28;1910;-49
2022/09/02 09:27:18;;;;;;;;;;;;;;;23.05;84.72;95052.28;5095326;28;1085;-49
2022/09/02 09:29:44;;;;;;;;;;;;;;;23.24;84.06;95049.38;5095526;28;995;-50
2022/09/02 09:32:22;;;;;;;;;;;;;;;23.55;80.63;95048.88;5095541;28;1025;-49
2022/09/02 09:34:51;;;;;;;;;;;;;;;23.48;81.67;95050.94;5095217;28;1000;-49
2022/09/02 09:37:37;;;;;;;;;;;;;;;23.18;83.19;95046.56;5095258;28;1068;-49
2022/09/02 09:40:21;;;;;;;;;;;;;;;23.52;82.74;95045.81;5095237;28;1063;-49
2022/09/02 09:42:51;;;;;;;;;;;;;;;23.39;83.68;95049.66;5095355;28;1103;-49
2022/09/02 09:45:21;;;;;;;;;;;;;;;23.32;83.11;95046.28;5108941;28;1146;-49
2022/09/02 09:48:06;;;;;;;;;;;;;;;23.22;83.27;95041.47;5115871;28;1053;-50
2022/09/02 09:50:32;;;;;;;;;;;;;;;23.03;84.14;95040.81;5115482;28;1032;-49
2022/09/02 09:53:14;;;;;;;;;;;;;;;22.88;86.54;95032.25;5115427;28;1033;-49
2022/09/02 09:55:54;;;;;;;;;;;;;;;22.89;85.59;95031.19;5097130;28;1250;-49
2022/09/02 09:58:21;;;;;;;;;;;;;;;23.07;85.28;95041.13;5115238;28;1107;-49
2022/09/02 10:00:47;;;;;;;;;;;;;;;23.12;85.90;95033.88;5115289;28;1023;-50
2022/09/02 10:03:21;;;;;;;;;;;;;;;22.88;87.39;95027.66;5114160;28;1906;-49
2022/09/02 10:05:49;;;;;;;;;;;;;;;22.82;83.85;95020.41;5114920;28;1095;-49
2022/09/02 10:08:15;;;;;;;;;;;;;;;22.74;84.84;95013.44;5115075;28;1003;-49
2022/09/02 10:10:54;;;;;;;;;;;;;;;22.75;85.35;95019.75;5114840;28;1045;-49
2022/09/02 10:13:22;;;;;;;;;;;;;;;22.69;86.66;95012.50;5115156;28;1012;-49
2022/09/02 10:15:58;;;;;;;;;;;;;;;22.67;85.73;94999.16;5114778;28;1095;-49
2022/09/02 10:18:42;;;;;;;;;;;;;;;23.04;84.39;95012.47;5114935;28;1050;-49
2022/09/02 10:21:26;;;;;;;;;;;;;;;23.05;85.00;94997.75;5096511;28;1048;-49
2022/09/02 10:23:55;;;;;;;;;;;;;;;23.63;81.81;94989.53;5114849;28;1989;-49
2022/09/02 10:26:21;;;;;;;;;;;;;;;23.96;77.44;94994.22;5114431;28;1209;-49
2022/09/02 10:29:00;;;;;;;;;;;;;;;24.21;78.89;94984.72;5115201;28;1029;-49
2022/09/02 10:31:45;;;;;;;;;;;;;;;24.36;78.96;94983.06;5114401;28;925;-49
2022/09/02 10:34:14;;;;;;;;;;;;;;;24.56;78.83;94978.97;5114702;28;1028;-49
2022/09/02 10:36:58;;;;;;;;;;;;;;;24.65;79.37;94988.38;5114377;28;1099;-49
2022/09/02 10:39:24;;;;;;;;;;;;;;;24.83;78.19;94997.34;5114531;28;1045;-49
2022/09/02 10:41:54;;;;;;;;;;;;;;;24.94;77.90;94999.94;5114315;28;1048;-49
2022/09/02 10:44:30;;;;;;;;;;;;;;;25.13;77.90;94996.91;5108338;28;2031;-49
2022/09/02 10:47:00;;;;;;;;;;;;;;;24.95;75.94;94984.38;5094025;28;969;-49
2022/09/02 10:49:27;;;;;;;;;;;;;;;24.74;79.33;94986.88;5094410;28;1254;-49
2022/09/02 10:52:04;;;;;;;;;;;;;;;24.66;77.07;94978.28;5093864;28;966;-49
2022/09/02 10:54:48;;;;;;;;;;;;;;;24.57;78.05;94975.19;5093884;28;1037;-49
2022/09/02 10:57:43;;;;;;;;;;;;;;;24.73;78.31;94968.81;5093747;28;1049;-49
2022/09/02 11:00:15;;;;;;;;;;;;;;;24.79;79.74;94968.88;5004614;28;1308;-50
2022/09/02 11:02:49;;;;;;;;;;;;;;;24.26;76.80;94982.88;5093639;28;965;-49
2022/09/02 11:05:26;;;;;;;;;;;;;;;23.92;80.38;94982.09;5093623;28;1914;-49
2022/09/02 11:08:00;;;;;;;;;;;;;;;23.83;81.42;94983.59;5093671;28;1064;-50
2022/09/02 11:10:30;;;;;;;;;;;;;;;23.76;81.44;94987.28;5093928;28;1048;-49
2022/09/02 11:13:01;;;;;;;;;;;;;;;23.73;81.51;94985.06;5093525;28;984;-49
2022/09/02 11:15:33;;;;;;;;;;;;;;;23.72;82.08;94983.41;5093266;28;1020;-49
2022/09/02 11:18:05;;;;;;;;;;;;;;;23.80;82.29;94989.56;5093412;28;1095;-49
2022/09/02 11:20:40;;;;;;;;;;;;;;;23.91;82.67;94986.75;5093595;28;1251;-49
2022/09/02 11:23:18;;;;;;;;;;;;;;;24.04;81.75;94982.84;5093176;28;1989;-50
2022/09/02 11:25:50;;;;;;;;;;;;;;;24.06;81.39;94985.34;5093493;28;1068;-49
2022/09/02 11:28:39;;;;;;;;;;;;;;;24.20;79.98;94977.63;2939144;28;2058;-55
2022/09/02 11:31:11;;;;;;;;;;;;;;;24.28;80.20;94979.91;5093494;28;1143;-49
2022/09/02 11:33:49;;;;;;;;;;;;;;;24.27;79.88;94989.22;5093250;28;1166;-49
2022/09/02 11:36:16;;;;;;;;;;;;;;;24.14;80.75;94988.47;5093306;28;1056;-49
2022/09/02 11:38:54;;;;;;;;;;;;;;;24.12;80.93;94992.53;5093459;28;968;-50
2022/09/02 11:41:23;;;;;;;;;;;;;;;24.04;80.60;94984.78;5093279;28;1020;-50
2022/09/02 11:43:55;;;;;;;;;;;;;;;23.89;79.51;94977.97;5094739;28;1914;-49
2022/09/02 11:46:24;;;;;;;;;;;;;;;23.75;80.84;94982.94;5113661;28;968;-50
2022/09/02 11:49:09;;;;;;;;;;;;;;;23.67;80.65;94983.31;5113379;28;1044;-49
2022/09/02 11:51:47;;;;;;;;;;;;;;;23.62;81.07;94971.47;5113718;28;1947;-50
2022/09/02 11:54:15;;;;;;;;;;;;;;;23.62;81.24;94974.22;5113535;28;999;-49
2022/09/02 11:56:43;;;;;;;;;;;;;;;23.52;81.68;94977.59;5113675;28;1068;-50
2022/09/02 11:59:19;;;;;;;;;;;;;;;23.50;83.04;94974.28;5113210;28;1219;-50
2022/09/02 12:01:53;;;;;;;;;;;;;;;23.42;83.06;94972.78;5113557;28;1009;-50
2022/09/02 12:04:24;;;;;;;;;;;;;;;23.36;82.83;94977.34;5113223;28;1901;-49
2022/09/02 12:07:05;;;;;;;;;;;;;;;23.30;85.27;94970.13;5113700;28;1004;-49
2022/09/02 12:09:43;;;;;;;;;;;;;;;23.17;86.01;94965.81;5113384;28;949;-49
2022/09/02 12:12:30;;;;;;;;;;;;;;;23.02;87.33;94976.41;5113322;28;1040;-49
2022/09/02 12:14:56;;;;;;;;;;;;;;;22.91;90.58;94977.28;5113316;28;1119;-49
2022/09/02 12:17:42;;;;;;;;;;;;;;;22.83;91.34;94975.75;5113132;28;1025;-49
2022/09/02 12:20:10;;;;;;;;;;;;;;;22.61;94.54;94984.59;5113169;28;2048;-49
2022/09/02 12:22:37;;;;;;;;;;;;;;;22.54;91.33;94973.00;5113385;28;959;-49
2022/09/02 12:25:23;;;;;;;;;;;;;;;22.57;92.65;94974.41;5113369;28;1956;-49
2022/09/02 12:27:49;;;;;;;;;;;;;;;22.62;95.50;94974.50;5116068;28;1925;-49
2022/09/02 12:30:35;;;;;;;;;;;;;;;22.61;95.66;94975.56;5116901;28;1147;-49
2022/09/02 12:33:02;;;;;;;;;;;;;;;22.59;92.59;94974.97;5116825;28;1797;-49
2022/09/02 12:35:33;;;;;;;;;;;;;;;22.37;91.30;94980.25;5117189;28;1079;-49
2022/09/02 12:38:05;;;;;;;;;;;;;;;22.13;95.03;94971.25;5116901;28;966;-49
2022/09/02 12:40:34;;;;;;;;;;;;;;;22.07;95.47;94966.75;5116935;28;1143;-49
2022/09/02 12:43:03;;;;;;;;;;;;;;;22.07;93.27;94964.84;5116604;28;2020;-49
2022/09/02 12:45:30;;;;;;;;;;;;;;;21.93;95.05;94960.69;5101191;28;1209;-49
2022/09/02 12:48:22;;;;;;;;;;;;;;;21.82;95.94;94965.09;5096351;28;1025;-49
2022/09/02 12:50:58;;;;;;;;;;;;;;;21.75;100.00;94953.50;5091762;28;1255;-49
2022/09/02 12:53:37;;;;;;;;;;;;;;;21.71;100.00;94958.56;5095918;28;1096;-49
2022/09/02 12:56:04;;;;;;;;;;;;;;;21.61;96.87;94975.47;5096397;28;958;-49
2022/09/02 12:58:44;;;;;;;;;;;;;;;21.54;98.58;94980.19;5095933;28;1057;-49
2022/09/02 13:01:16;;;;;;;;;;;;;;;21.70;95.98;94978.66;5096053;28;1100;-49
2022/09/02 13:03:51;;;;;;;;;;;;;;;21.59;98.88;94976.78;5095823;28;1914;-50
2022/09/02 13:06:26;;;;;;;;;;;;;;;21.45;98.93;94978.88;5095880;28;1032;-49